sensor_id;sensor_type;location;lat;lon;timestamp;pressure;altitude;pressure_sealevel;temperature;humidity
74678;BME280;63207;56.328;43.994;2022-09-09T00:06:32;101033.25;;;19.08;57.34
74678;BME280;63207;56.328;43.994;2022-09-09T00:09:17;101030.63;;;19.08;57.46
74678;BME280;63207;56.328;43.994;2022-09-09T00:11:47;101028.00;;;19.08;57.49
74678;BME280;63207;56.328;43.994;2022-09-09T00:14:23;101028.97;;;19.07;57.43
74678;BME280;63207;56.328;43.994;2022-09-09T00:17:01;101029.94;;;19.06;57.38
74678;BME280;63207;56.328;43.994;2022-09-09T00:19:48;101036.84;;;19.07;57.25
74678;BME280;63207;56.328;43.994;2022-09-09T00:22:18;101050.94;;;19.06;57.50
74678;BME280;63207;56.328;43.994;2022-09-09T00:24:49;101048.31;;;19.06;57.52
74678;BME280;63207;56.328;43.994;2022-09-09T00:27:19;101055.19;;;19.07;57.45
74678;BME280;63207;56.328;43.994;2022-09-09T00:29:54;101051.75;;;19.06;57.36
74678;BME280;63207;56.328;43.994;2022-09-09T00:32:24;101056.16;;;19.06;57.47
74678;BME280;63207;56.328;43.994;2022-09-09T00:35:03;101050.94;;;19.06;57.44
74678;BME280;63207;56.328;43.994;2022-09-09T00:37:29;101055.31;;;19.05;57.42
74678;BME280;63207;56.328;43.994;2022-09-09T00:40:02;101061.41;;;19.06;57.53
74678;BME280;63207;56.328;43.994;2022-09-09T00:42:53;101061.41;;;19.06;57.26
74678;BME280;63207;56.328;43.994;2022-09-09T00:48:10;101061.53;;;19.04;57.51
74678;BME280;63207;56.328;43.994;2022-09-09T00:50:53;101072.00;;;19.04;57.27
74678;BME280;63207;56.328;43.994;2022-09-09T00:58:22;101068.69;;;19.02;57.50
74678;BME280;63207;56.328;43.994;2022-09-09T01:01:04;101066.06;;;19.02;57.36
74678;BME280;63207;56.328;43.994;2022-09-09T01:03:45;101073.94;;;19.02;57.60
74678;BME280;63207;56.328;43.994;2022-09-09T01:11:32;101078.34;;;19.02;57.47
74678;BME280;63207;56.328;43.994;2022-09-09T01:14:14;101082.75;;;19.01;57.46
74678;BME280;63207;56.328;43.994;2022-09-09T01:16:45;101087.03;;;19.02;57.41
74678;BME280;63207;56.328;43.994;2022-09-09T01:19:20;101088.00;;;19.01;57.30
74678;BME280;63207;56.328;43.994;2022-09-09T01:21:59;101082.75;;;19.01;57.43
74678;BME280;63207;56.328;43.994;2022-09-09T01:27:42;101088.84;;;19.02;57.46
74678;BME280;63207;56.328;43.994;2022-09-09T01:30:14;101089.81;;;19.01;57.41
74678;BME280;63207;56.328;43.994;2022-09-09T01:32:48;101092.44;;;19.01;57.53
74678;BME280;63207;56.328;43.994;2022-09-09T01:37:49;101098.59;;;19.00;57.44
74678;BME280;63207;56.328;43.994;2022-09-09T01:40:15;101097.66;;;19.01;57.35
74678;BME280;63207;56.328;43.994;2022-09-09T01:42:41;101102.06;;;19.00;57.37
74678;BME280;63207;56.328;43.994;2022-09-09T01:45:25;101101.22;;;19.00;57.46
74678;BME280;63207;56.328;43.994;2022-09-09T01:47:54;101095.97;;;19.00;57.33
74678;BME280;63207;56.328;43.994;2022-09-09T01:50:46;101106.47;;;19.00;57.39
74678;BME280;63207;56.328;43.994;2022-09-09T01:53:14;101103.84;;;19.00;57.39
74678;BME280;63207;56.328;43.994;2022-09-09T02:01:02;101121.38;;;18.99;57.34
74678;BME280;63207;56.328;43.994;2022-09-09T02:03:32;101123.16;;;18.99;57.44
74678;BME280;63207;56.328;43.994;2022-09-09T02:06:25;101123.16;;;18.99;57.30
74678;BME280;63207;56.328;43.994;2022-09-09T02:08:56;101124.97;;;18.98;57.24
74678;BME280;63207;56.328;43.994;2022-09-09T02:11:26;101121.50;;;18.98;57.29
74678;BME280;63207;56.328;43.994;2022-09-09T02:14:12;101124.09;;;18.98;57.27
74678;BME280;63207;56.328;43.994;2022-09-09T02:17:09;101133.78;;;18.97;57.42
74678;BME280;63207;56.328;43.994;2022-09-09T02:20:07;101130.31;;;18.97;57.32
74678;BME280;63207;56.328;43.994;2022-09-09T02:22:53;101132.94;;;18.97;57.35
74678;BME280;63207;56.328;43.994;2022-09-09T02:25:24;101133.91;;;18.96;57.32
74678;BME280;63207;56.328;43.994;2022-09-09T02:27:54;101139.97;;;18.96;57.36
74678;BME280;63207;56.328;43.994;2022-09-09T02:30:20;101146.16;;;18.95;57.35
74678;BME280;63207;56.328;43.994;2022-09-09T02:33:06;101139.16;;;18.96;57.45
74678;BME280;63207;56.328;43.994;2022-09-09T02:35:52;101150.56;;;18.94;57.40
74678;BME280;63207;56.328;43.994;2022-09-09T02:38:25;101148.78;;;18.95;57.39
74678;BME280;63207;56.328;43.994;2022-09-09T02:41:12;101157.50;;;18.96;57.39
74678;BME280;63207;56.328;43.994;2022-09-09T02:43:39;101157.63;;;18.94;57.52
74678;BME280;63207;56.328;43.994;2022-09-09T02:52:15;101161.06;;;18.94;57.25
74678;BME280;63207;56.328;43.994;2022-09-09T02:54:44;101166.41;;;18.93;57.46
74678;BME280;63207;56.328;43.994;2022-09-09T02:57:27;101169.03;;;18.93;57.39
74678;BME280;63207;56.328;43.994;2022-09-09T03:00:00;101169.91;;;18.93;57.37
74678;BME280;63207;56.328;43.994;2022-09-09T03:02:29;101170.84;;;18.92;57.34
74678;BME280;63207;56.328;43.994;2022-09-09T03:05:01;101183.13;;;18.92;57.18
74678;BME280;63207;56.328;43.994;2022-09-09T03:07:28;101182.16;;;18.93;57.33
74678;BME280;63207;56.328;43.994;2022-09-09T03:10:12;101183.94;;;18.92;57.34
74678;BME280;63207;56.328;43.994;2022-09-09T03:12:38;101186.56;;;18.92;57.50
74678;BME280;63207;56.328;43.994;2022-09-09T03:15:06;101183.94;;;18.92;57.28
74678;BME280;63207;56.328;43.994;2022-09-09T03:17:32;101190.88;;;18.93;57.28
74678;BME280;63207;56.328;43.994;2022-09-09T03:19:58;101190.97;;;18.92;57.29
74678;BME280;63207;56.328;43.994;2022-09-09T03:22:25;101197.06;;;18.92;57.12
74678;BME280;63207;56.328;43.994;2022-09-09T03:24:56;101199.69;;;18.92;57.32
74678;BME280;63207;56.328;43.994;2022-09-09T03:27:22;101204.09;;;18.92;57.40
74678;BME280;63207;56.328;43.994;2022-09-09T03:29:48;101202.44;;;18.91;57.35
74678;BME280;63207;56.328;43.994;2022-09-09T03:32:19;101211.97;;;18.92;57.30
74678;BME280;63207;56.328;43.994;2022-09-09T03:34:48;101214.56;;;18.92;57.17
74678;BME280;63207;56.328;43.994;2022-09-09T03:37:19;101212.78;;;18.92;57.38
74678;BME280;63207;56.328;43.994;2022-09-09T03:39:45;101216.38;;;18.91;57.32
74678;BME280;63207;56.328;43.994;2022-09-09T03:42:13;101221.63;;;18.91;57.22
74678;BME280;63207;56.328;43.994;2022-09-09T03:44:49;101221.63;;;18.91;57.39
74678;BME280;63207;56.328;43.994;2022-09-09T03:47:21;101230.41;;;18.90;57.22
74678;BME280;63207;56.328;43.994;2022-09-09T03:49:49;101228.66;;;18.91;57.20
74678;BME280;63207;56.328;43.994;2022-09-09T03:52:15;101231.38;;;18.89;57.31
74678;BME280;63207;56.328;43.994;2022-09-09T03:54:42;101232.22;;;18.90;57.38
74678;BME280;63207;56.328;43.994;2022-09-09T03:57:09;101221.72;;;18.90;57.22
74678;BME280;63207;56.328;43.994;2022-09-09T03:59:54;101231.38;;;18.89;57.21
74678;BME280;63207;56.328;43.994;2022-09-09T04:02:20;101226.13;;;18.89;57.21
74678;BME280;63207;56.328;43.994;2022-09-09T04:04:47;101239.25;;;18.89;57.34
74678;BME280;63207;56.328;43.994;2022-09-09T04:07:13;101243.66;;;18.89;57.23
74678;BME280;63207;56.328;43.994;2022-09-09T04:09:39;101239.25;;;18.89;57.35
74678;BME280;63207;56.328;43.994;2022-09-09T04:12:05;101242.84;;;18.88;57.35
74678;BME280;63207;56.328;43.994;2022-09-09T04:14:33;101246.38;;;18.87;57.24
74678;BME280;63207;56.328;43.994;2022-09-09T04:16:59;101247.94;;;18.90;57.26
74678;BME280;63207;56.328;43.994;2022-09-09T04:19:25;101243.66;;;18.89;57.30
74678;BME280;63207;56.328;43.994;2022-09-09T04:21:52;101250.69;;;18.88;57.26
74678;BME280;63207;56.328;43.994;2022-09-09T04:24:20;101258.66;;;18.87;57.30
74678;BME280;63207;56.328;43.994;2022-09-09T04:26:47;101256.88;;;18.87;57.34
74678;BME280;63207;56.328;43.994;2022-09-09T04:29:13;101265.56;;;18.88;57.28
74678;BME280;63207;56.328;43.994;2022-09-09T04:31:39;101264.75;;;18.87;57.30
74678;BME280;63207;56.328;43.994;2022-09-09T04:34:09;101269.16;;;18.87;57.43
74678;BME280;63207;56.328;43.994;2022-09-09T04:36:35;101268.31;;;18.86;57.24
74678;BME280;63207;56.328;43.994;2022-09-09T04:39:04;101273.56;;;18.86;57.40
74678;BME280;63207;56.328;43.994;2022-09-09T04:41:30;101269.16;;;18.87;57.21
74678;BME280;63207;56.328;43.994;2022-09-09T04:43:57;101273.56;;;18.86;57.21
74678;BME280;63207;56.328;43.994;2022-09-09T04:46:24;101273.56;;;18.86;57.30
74678;BME280;63207;56.328;43.994;2022-09-09T04:48:51;101273.56;;;18.86;57.30
74678;BME280;63207;56.328;43.994;2022-09-09T04:51:18;101278.00;;;18.86;57.13
74678;BME280;63207;56.328;43.994;2022-09-09T04:53:46;101270.94;;;18.86;57.14
74678;BME280;63207;56.328;43.994;2022-09-09T04:56:15;101277.13;;;18.85;57.24
74678;BME280;63207;56.328;43.994;2022-09-09T04:58:47;101284.16;;;18.85;57.08
74678;BME280;63207;56.328;43.994;2022-09-09T05:01:17;101279.06;;;18.83;57.18
74678;BME280;63207;56.328;43.994;2022-09-09T05:04:02;101278.91;;;18.85;57.13
74678;BME280;63207;56.328;43.994;2022-09-09T05:06:28;101283.22;;;18.86;57.06
74678;BME280;63207;56.328;43.994;2022-09-09T05:08:58;101286.06;;;18.83;57.14
74678;BME280;63207;56.328;43.994;2022-09-09T05:11:29;101287.84;;;18.82;57.03
74678;BME280;63207;56.328;43.994;2022-09-09T05:14:04;101292.16;;;18.83;57.14
74678;BME280;63207;56.328;43.994;2022-09-09T05:16:31;101287.84;;;18.82;57.32
74678;BME280;63207;56.328;43.994;2022-09-09T05:18:57;101286.94;;;18.83;57.20
74678;BME280;63207;56.328;43.994;2022-09-09T05:21:24;101290.47;;;18.82;57.37
74678;BME280;63207;56.328;43.994;2022-09-09T05:23:52;101290.47;;;18.82;57.25
74678;BME280;63207;56.328;43.994;2022-09-09T05:26:20;101291.31;;;18.83;57.19
74678;BME280;63207;56.328;43.994;2022-09-09T05:29:05;101287.84;;;18.82;57.22
74678;BME280;63207;56.328;43.994;2022-09-09T05:31:32;101291.44;;;18.81;57.12
74678;BME280;63207;56.328;43.994;2022-09-09T05:34:02;101291.44;;;18.81;57.20
74678;BME280;63207;56.328;43.994;2022-09-09T05:36:28;101299.31;;;18.81;57.17
74678;BME280;63207;56.328;43.994;2022-09-09T05:38:55;101300.13;;;18.82;57.25
74678;BME280;63207;56.328;43.994;2022-09-09T05:41:22;101300.97;;;18.82;57.11
74678;BME280;63207;56.328;43.994;2022-09-09T05:43:50;101301.94;;;18.81;57.08
74678;BME280;63207;56.328;43.994;2022-09-09T05:46:19;101301.09;;;18.81;57.18
74678;BME280;63207;56.328;43.994;2022-09-09T05:48:47;101306.34;;;18.81;57.10
74678;BME280;63207;56.328;43.994;2022-09-09T05:51:16;101314.31;;;18.79;57.18
74678;BME280;63207;56.328;43.994;2022-09-09T05:53:44;101313.34;;;18.80;57.08
74678;BME280;63207;56.328;43.994;2022-09-09T05:56:16;101319.44;;;18.81;57.15
74678;BME280;63207;56.328;43.994;2022-09-09T05:58:46;101315.13;;;18.80;57.21
74678;BME280;63207;56.328;43.994;2022-09-09T06:01:25;101329.06;;;18.80;57.02
74678;BME280;63207;56.328;43.994;2022-09-09T06:03:52;101323.84;;;18.80;57.16
74678;BME280;63207;56.328;43.994;2022-09-09T06:06:22;101325.63;;;18.80;56.99
74678;BME280;63207;56.328;43.994;2022-09-09T06:08:50;101327.41;;;18.79;57.05
74678;BME280;63207;56.328;43.994;2022-09-09T06:11:19;101325.63;;;18.80;57.15
74678;BME280;63207;56.328;43.994;2022-09-09T06:13:46;101324.78;;;18.79;57.18
74678;BME280;63207;56.328;43.994;2022-09-09T06:16:15;101329.22;;;18.79;57.18
74678;BME280;63207;56.328;43.994;2022-09-09T06:19:01;101331.00;;;18.78;57.16
74678;BME280;63207;56.328;43.994;2022-09-09T06:21:31;101331.94;;;18.77;57.18
74678;BME280;63207;56.328;43.994;2022-09-09T06:24:00;101333.63;;;18.78;57.14
74678;BME280;63207;56.328;43.994;2022-09-09T06:26:33;101333.63;;;18.78;57.19
74678;BME280;63207;56.328;43.994;2022-09-09T06:29:01;101338.88;;;18.78;57.12
74678;BME280;63207;56.328;43.994;2022-09-09T06:31:31;101349.34;;;18.78;57.23
74678;BME280;63207;56.328;43.994;2022-09-09T06:34:05;101348.50;;;18.78;57.21
74678;BME280;63207;56.328;43.994;2022-09-09T06:36:35;101346.72;;;18.78;57.17
74678;BME280;63207;56.328;43.994;2022-09-09T06:39:03;101345.03;;;18.77;57.22
74678;BME280;63207;56.328;43.994;2022-09-09T06:41:32;101351.25;;;18.76;57.08
74678;BME280;63207;56.328;43.994;2022-09-09T06:43:59;101356.34;;;18.78;57.09
74678;BME280;63207;56.328;43.994;2022-09-09T06:46:40;101361.59;;;18.78;56.99
74678;BME280;63207;56.328;43.994;2022-09-09T06:49:10;101363.38;;;18.77;57.12
74678;BME280;63207;56.328;43.994;2022-09-09T06:51:37;101358.16;;;18.77;57.24
74678;BME280;63207;56.328;43.994;2022-09-09T06:54:09;101353.88;;;18.76;57.17
74678;BME280;63207;56.328;43.994;2022-09-09T06:56:37;101362.56;;;18.77;57.03
74678;BME280;63207;56.328;43.994;2022-09-09T06:59:08;101365.19;;;18.77;57.18
74678;BME280;63207;56.328;43.994;2022-09-09T07:01:38;101361.72;;;18.76;57.13
74678;BME280;63207;56.328;43.994;2022-09-09T07:04:09;101364.34;;;18.76;57.28
74678;BME280;63207;56.328;43.994;2022-09-09T07:06:44;101366.13;;;18.76;57.19
74678;BME280;63207;56.328;43.994;2022-09-09T07:09:15;101361.72;;;18.76;57.11
74678;BME280;63207;56.328;43.994;2022-09-09T07:11:49;101364.34;;;18.76;57.11
74678;BME280;63207;56.328;43.994;2022-09-09T07:14:19;101369.59;;;18.76;57.15
74678;BME280;63207;56.328;43.994;2022-09-09T07:16:48;101371.34;;;18.76;57.10
74678;BME280;63207;56.328;43.994;2022-09-09T07:19:16;101373.13;;;18.75;57.09
74678;BME280;63207;56.328;43.994;2022-09-09T07:21:43;101380.97;;;18.75;57.14
74678;BME280;63207;56.328;43.994;2022-09-09T07:24:12;101373.97;;;18.76;57.12
74678;BME280;63207;56.328;43.994;2022-09-09T07:26:40;101361.81;;;18.75;57.11
74678;BME280;63207;56.328;43.994;2022-09-09T07:29:07;101376.50;;;18.77;57.16
74678;BME280;63207;56.328;43.994;2022-09-09T07:31:37;101366.97;;;18.76;57.04
74678;BME280;63207;56.328;43.994;2022-09-09T07:34:09;101377.47;;;18.76;57.13
74678;BME280;63207;56.328;43.994;2022-09-09T07:36:37;101373.13;;;18.75;57.12
74678;BME280;63207;56.328;43.994;2022-09-09T07:39:08;101378.34;;;18.75;57.10
74678;BME280;63207;56.328;43.994;2022-09-09T07:41:53;101380.16;;;18.75;57.23
74678;BME280;63207;56.328;43.994;2022-09-09T07:44:23;101388.84;;;18.75;57.07
74678;BME280;63207;56.328;43.994;2022-09-09T07:47:03;101384.56;;;18.74;57.04
74678;BME280;63207;56.328;43.994;2022-09-09T07:49:34;101387.19;;;18.74;57.06
74678;BME280;63207;56.328;43.994;2022-09-09T07:52:03;101388.84;;;18.75;57.04
74678;BME280;63207;56.328;43.994;2022-09-09T07:54:29;101393.25;;;18.75;57.13
74678;BME280;63207;56.328;43.994;2022-09-09T07:56:56;101385.41;;;18.75;56.98
74678;BME280;63207;56.328;43.994;2022-09-09T07:59:26;101394.09;;;18.75;57.16
74678;BME280;63207;56.328;43.994;2022-09-09T08:02:14;101406.38;;;18.75;57.10
74678;BME280;63207;56.328;43.994;2022-09-09T08:04:40;101404.72;;;18.73;57.06
74678;BME280;63207;56.328;43.994;2022-09-09T08:07:06;101404.72;;;18.73;57.03
74678;BME280;63207;56.328;43.994;2022-09-09T08:09:42;101408.16;;;18.74;57.29
74678;BME280;63207;56.328;43.994;2022-09-09T08:12:28;101415.19;;;18.73;56.98
74678;BME280;63207;56.328;43.994;2022-09-09T08:14:55;101410.78;;;18.74;57.03
74678;BME280;63207;56.328;43.994;2022-09-09T08:17:24;101416.84;;;18.75;57.03
74678;BME280;63207;56.328;43.994;2022-09-09T08:19:50;101410.78;;;18.74;57.06
74678;BME280;63207;56.328;43.994;2022-09-09T08:22:22;101415.19;;;18.73;56.86
74678;BME280;63207;56.328;43.994;2022-09-09T08:24:50;101409.94;;;18.73;57.00
74678;BME280;63207;56.328;43.994;2022-09-09T08:27:16;101400.28;;;18.74;57.09
74678;BME280;63207;56.328;43.994;2022-09-09T08:29:42;101409.94;;;18.73;57.06
74678;BME280;63207;56.328;43.994;2022-09-09T08:32:08;101418.75;;;18.72;57.05
74678;BME280;63207;56.328;43.994;2022-09-09T08:34:36;101412.56;;;18.73;57.12
74678;BME280;63207;56.328;43.994;2022-09-09T08:37:07;101409.09;;;18.73;57.08
74678;BME280;63207;56.328;43.994;2022-09-09T08:39:37;101413.41;;;18.74;57.12
74678;BME280;63207;56.328;43.994;2022-09-09T08:50:29;101422.19;;;18.73;56.97
74678;BME280;63207;56.328;43.994;2022-09-09T08:55:57;101439.59;;;18.74;56.98
74678;BME280;63207;56.328;43.994;2022-09-09T08:58:35;101429.22;;;18.72;57.16
74678;BME280;63207;56.328;43.994;2022-09-09T09:03:57;101433.63;;;18.72;56.86
74678;BME280;63207;56.328;43.994;2022-09-09T09:11:53;101428.41;;;18.72;57.06
74678;BME280;63207;56.328;43.994;2022-09-09T09:14:23;101426.75;;;18.71;57.07
74678;BME280;63207;56.328;43.994;2022-09-09T09:16:59;101436.25;;;18.72;56.88
74678;BME280;63207;56.328;43.994;2022-09-09T09:19:28;101436.25;;;18.72;57.07
74678;BME280;63207;56.328;43.994;2022-09-09T09:24:42;101436.25;;;18.72;57.02
74678;BME280;63207;56.328;43.994;2022-09-09T09:27:25;101434.47;;;18.72;57.08
74678;BME280;63207;56.328;43.994;2022-09-09T09:29:55;101438.88;;;18.72;57.08
74678;BME280;63207;56.328;43.994;2022-09-09T09:32:24;101445.78;;;18.73;57.11
74678;BME280;63207;56.328;43.994;2022-09-09T09:34:55;101437.22;;;18.71;57.01
74678;BME280;63207;56.328;43.994;2022-09-09T09:37:33;101436.25;;;18.72;57.09
74678;BME280;63207;56.328;43.994;2022-09-09T09:40:12;101440.53;;;18.73;56.97
74678;BME280;63207;56.328;43.994;2022-09-09T09:42:54;101437.09;;;18.72;57.16
74678;BME280;63207;56.328;43.994;2022-09-09T09:45:43;101439.72;;;18.72;56.98
74678;BME280;63207;56.328;43.994;2022-09-09T09:48:16;101438.88;;;18.72;57.04
74678;BME280;63207;56.328;43.994;2022-09-09T09:53:38;101436.34;;;18.70;57.18
74678;BME280;63207;56.328;43.994;2022-09-09T09:56:08;101444.13;;;18.72;57.07
74678;BME280;63207;56.328;43.994;2022-09-09T09:58:49;101439.84;;;18.71;57.04
74678;BME280;63207;56.328;43.994;2022-09-09T10:01:29;101439.72;;;18.72;57.10
74678;BME280;63207;56.328;43.994;2022-09-09T10:04:20;101445.91;;;18.71;56.98
74678;BME280;63207;56.328;43.994;2022-09-09T10:06:50;101444.94;;;18.72;57.11
74678;BME280;63207;56.328;43.994;2022-09-09T10:09:34;101449.38;;;18.72;56.98
74678;BME280;63207;56.328;43.994;2022-09-09T10:15:02;101449.38;;;18.72;57.12
74678;BME280;63207;56.328;43.994;2022-09-09T10:17:43;101452.94;;;18.71;57.04
74678;BME280;63207;56.328;43.994;2022-09-09T10:26:11;101457.22;;;18.72;57.07
74678;BME280;63207;56.328;43.994;2022-09-09T10:34:49;101460.81;;;18.71;56.96
74678;BME280;63207;56.328;43.994;2022-09-09T10:48:31;101455.56;;;18.71;56.98
74678;BME280;63207;56.328;43.994;2022-09-09T10:56:14;101458.06;;;18.72;57.07
74678;BME280;63207;56.328;43.994;2022-09-09T10:58:55;101462.47;;;18.72;57.02
74678;BME280;63207;56.328;43.994;2022-09-09T11:01:53;101462.38;;;18.73;56.96
74678;BME280;63207;56.328;43.994;2022-09-09T11:04:27;101459.84;;;18.72;56.88
74678;BME280;63207;56.328;43.994;2022-09-09T11:07:00;101465.09;;;18.72;57.16
74678;BME280;63207;56.328;43.994;2022-09-09T11:09:33;101461.50;;;18.73;56.96
74678;BME280;63207;56.328;43.994;2022-09-09T11:12:21;101459.75;;;18.73;57.05
74678;BME280;63207;56.328;43.994;2022-09-09T11:15:01;101454.50;;;18.73;57.10
74678;BME280;63207;56.328;43.994;2022-09-09T11:17:38;101459.75;;;18.73;56.91
74678;BME280;63207;56.328;43.994;2022-09-09T11:20:11;101452.72;;;18.74;57.11
74678;BME280;63207;56.328;43.994;2022-09-09T11:22:45;101450.91;;;18.75;57.24
74678;BME280;63207;56.328;43.994;2022-09-09T11:25:18;101458.78;;;18.75;56.99
74678;BME280;63207;56.328;43.994;2022-09-09T11:28:05;101457.00;;;18.75;57.19
74678;BME280;63207;56.328;43.994;2022-09-09T11:33:46;101456.16;;;18.75;57.04
74678;BME280;63207;56.328;43.994;2022-09-09T11:42:26;101453.97;;;18.81;55.84
74678;BME280;63207;56.328;43.994;2022-09-09T11:44:52;101444.19;;;18.83;56.24
74678;BME280;63207;56.328;43.994;2022-09-09T11:47:30;101454.31;;;18.88;56.47
74678;BME280;63207;56.328;43.994;2022-09-09T11:52:42;101454.59;;;18.96;56.26
74678;BME280;63207;56.328;43.994;2022-09-09T11:55:32;101468.28;;;19.00;55.69
74678;BME280;63207;56.328;43.994;2022-09-09T11:58:00;101463.78;;;19.02;55.86
74678;BME280;63207;56.328;43.994;2022-09-09T12:00:36;101484.50;;;19.05;55.59
74678;BME280;63207;56.328;43.994;2022-09-09T12:03:04;101494.06;;;19.06;55.23
74678;BME280;63207;56.328;43.994;2022-09-09T12:05:40;101485.84;;;19.10;55.76
74678;BME280;63207;56.328;43.994;2022-09-09T12:08:10;101487.19;;;19.16;56.03
74678;BME280;63207;56.328;43.994;2022-09-09T12:10:40;101486.69;;;19.22;56.15
74678;BME280;63207;56.328;43.994;2022-09-09T12:13:21;101491.50;;;19.28;56.33
74678;BME280;63207;56.328;43.994;2022-09-09T12:15:50;101487.56;;;19.34;56.43
74678;BME280;63207;56.328;43.994;2022-09-09T12:18:24;101478.38;;;19.40;56.54
74678;BME280;63207;56.328;43.994;2022-09-09T12:29:11;101472.06;;;19.65;56.85
74678;BME280;63207;56.328;43.994;2022-09-09T12:34:46;101465.78;;;19.67;56.89
74678;BME280;63207;56.328;43.994;2022-09-09T12:39:59;101468.19;;;19.70;57.19
74678;BME280;63207;56.328;43.994;2022-09-09T12:42:26;101476.75;;;19.72;56.98
74678;BME280;63207;56.328;43.994;2022-09-09T12:44:54;101479.25;;;19.74;57.26
74678;BME280;63207;56.328;43.994;2022-09-09T12:47:46;101470.41;;;19.75;57.27
74678;BME280;63207;56.328;43.994;2022-09-09T12:50:35;101466.50;;;19.81;57.50
74678;BME280;63207;56.328;43.994;2022-09-09T12:53:30;101465.28;;;19.85;57.62
74678;BME280;63207;56.328;43.994;2022-09-09T12:56:08;101472.09;;;19.87;57.27
74678;BME280;63207;56.328;43.994;2022-09-09T12:58:47;101469.25;;;19.90;57.42
74678;BME280;63207;56.328;43.994;2022-09-09T13:01:32;101465.63;;;19.91;57.53
74678;BME280;63207;56.328;43.994;2022-09-09T13:04:01;101462.03;;;19.92;57.55
74678;BME280;63207;56.328;43.994;2022-09-09T13:06:29;101461.81;;;19.95;57.41
74678;BME280;63207;56.328;43.994;2022-09-09T13:09:13;101468.72;;;19.96;57.61
74678;BME280;63207;56.328;43.994;2022-09-09T13:11:53;101468.63;;;19.98;57.55
74678;BME280;63207;56.328;43.994;2022-09-09T13:14:48;101458.84;;;20.00;57.53
74678;BME280;63207;56.328;43.994;2022-09-09T13:17:24;101464.91;;;20.00;57.56
74678;BME280;63207;56.328;43.994;2022-09-09T13:19:53;101457.75;;;20.03;57.31
74678;BME280;63207;56.328;43.994;2022-09-09T13:22:39;101462.75;;;20.06;57.49
74678;BME280;63207;56.328;43.994;2022-09-09T13:25:28;101467.75;;;20.09;57.63
74678;BME280;63207;56.328;43.994;2022-09-09T13:28:00;101468.47;;;20.11;57.79
74678;BME280;63207;56.328;43.994;2022-09-09T13:30:36;101470.03;;;20.13;57.87
74678;BME280;63207;56.328;43.994;2022-09-09T13:35:35;101471.47;;;20.17;57.71
74678;BME280;63207;56.328;43.994;2022-09-09T13:38:15;101476.47;;;20.20;57.73
74678;BME280;63207;56.328;43.994;2022-09-09T13:41:07;101476.31;;;20.22;57.85
74678;BME280;63207;56.328;43.994;2022-09-09T13:43:38;101477.88;;;20.25;57.84
74678;BME280;63207;56.328;43.994;2022-09-09T13:46:37;101474.28;;;20.26;57.81
74678;BME280;63207;56.328;43.994;2022-09-09T13:51:42;101471.03;;;20.33;57.86
74678;BME280;63207;56.328;43.994;2022-09-09T13:54:10;101469.97;;;20.36;57.86
74678;BME280;63207;56.328;43.994;2022-09-09T13:56:38;101474.03;;;20.40;57.83
74678;BME280;63207;56.328;43.994;2022-09-09T13:59:11;101466.00;;;20.41;57.76
74678;BME280;63207;56.328;43.994;2022-09-09T14:01:37;101470.88;;;20.46;57.76
74678;BME280;63207;56.328;43.994;2022-09-09T14:04:03;101463.72;;;20.48;57.66
74678;BME280;63207;56.328;43.994;2022-09-09T14:06:35;101459.88;;;20.52;57.45
74678;BME280;63207;56.328;43.994;2022-09-09T14:09:05;101459.66;;;20.55;57.49
74678;BME280;63207;56.328;43.994;2022-09-09T14:11:31;101469.91;;;20.58;57.58
74678;BME280;63207;56.328;43.994;2022-09-09T14:13:57;101468.00;;;20.60;57.47
74678;BME280;63207;56.328;43.994;2022-09-09T14:16:23;101475.63;;;20.63;57.38
74678;BME280;63207;56.328;43.994;2022-09-09T14:18:49;101477.16;;;20.66;57.26
74678;BME280;63207;56.328;43.994;2022-09-09T14:21:16;101481.34;;;20.69;56.98
74678;BME280;63207;56.328;43.994;2022-09-09T14:23:42;101475.97;;;20.70;56.91
74678;BME280;63207;56.328;43.994;2022-09-09T14:26:08;101478.44;;;20.72;56.78
74678;BME280;63207;56.328;43.994;2022-09-09T14:28:35;101476.66;;;20.72;56.77
74678;BME280;63207;56.328;43.994;2022-09-09T14:31:03;101481.94;;;20.72;56.72
74678;BME280;63207;56.328;43.994;2022-09-09T14:33:29;101471.41;;;20.72;56.79
74678;BME280;63207;56.328;43.994;2022-09-09T14:35:57;101473.91;;;20.74;56.71
74678;BME280;63207;56.328;43.994;2022-09-09T14:38:24;101477.25;;;20.76;56.42
74678;BME280;63207;56.328;43.994;2022-09-09T14:40:50;101475.44;;;20.76;56.12
74678;BME280;63207;56.328;43.994;2022-09-09T14:43:16;101486.94;;;20.75;55.94
74678;BME280;63207;56.328;43.994;2022-09-09T14:45:42;101489.56;;;20.75;55.90
74678;BME280;63207;56.328;43.994;2022-09-09T14:48:09;101484.31;;;20.75;55.80
74678;BME280;63207;56.328;43.994;2022-09-09T14:50:34;101486.94;;;20.75;55.80
74678;BME280;63207;56.328;43.994;2022-09-09T14:53:05;101479.88;;;20.76;55.70
74678;BME280;63207;56.328;43.994;2022-09-09T14:55:32;101490.94;;;20.79;55.77
74678;BME280;63207;56.328;43.994;2022-09-09T14:57:58;101488.94;;;20.83;55.92
74678;BME280;63207;56.328;43.994;2022-09-09T15:00:24;101491.28;;;20.86;56.07
74678;BME280;63207;56.328;43.994;2022-09-09T15:02:53;101484.81;;;20.90;56.04
74678;BME280;63207;56.328;43.994;2022-09-09T15:05:20;101488.84;;;20.94;56.26
74678;BME280;63207;56.328;43.994;2022-09-09T15:07:46;101491.25;;;20.97;56.30
74678;BME280;63207;56.328;43.994;2022-09-09T15:10:14;101490.97;;;21.00;56.43